Time;durP1;ratioP1;P1;durP2;ratioP2;P2;SDS_P1;SDS_P2;PMS_P1;PMS_P2;Temp;Humidity;BMP_temperature;BMP_pressure;BME280_temperature;BME280_humidity;BME280_pressure;Samples;Min_cycle;Max_cycle;Signal;HPM_P1;HPM_P2
2022/09/08 00:01:34;;;;;;;739.35;384.92;;;;;;;;;;5111352;28;20107;-70
2022/09/08 00:04:24;;;;;;;731.33;385.27;;;;;;;;;;5112217;27;20934;-70
2022/09/08 00:08:51;;;;;;;711.38;380.80;;;;;;;;;;5111671;27;20483;-70
2022/09/08 00:13:07;;;;;;;721.17;387.02;;;;;;;;;;5111369;27;20397;-71
2022/09/08 00:18:32;;;;;;;705.88;374.42;;;;;;;;;;5111557;27;20470;-71
2022/09/08 00:22:11;;;;;;;712.58;390.63;;;;;;;;;;5111400;27;20397;-70
2022/09/08 00:24:37;;;;;;;710.00;363.75;;;;;;;;;;5110906;28;20028;-71
2022/09/08 00:27:04;;;;;;;718.90;387.50;;;;;;;;;;5111469;28;20110;-71
2022/09/08 00:29:30;;;;;;;698.05;366.60;;;;;;;;;;5111452;28;20109;-71
2022/09/08 00:33:01;;;;;;;715.08;370.00;;;;;;;;;;5111823;27;20414;-70
2022/09/08 00:35:27;;;;;;;707.80;353.05;;;;;;;;;;5111356;28;20383;-71
2022/09/08 00:37:53;;;;;;;703.70;354.58;;;;;;;;;;5110914;28;20063;-71
2022/09/08 00:40:21;;;;;;;693.80;348.73;;;;;;;;;;5111199;28;20089;-71
2022/09/08 00:46:40;;;;;;;692.88;360.98;;;;;;;;;;5112069;27;20410;-70
2022/09/08 00:49:16;;;;;;;697.35;353.98;;;;;;;;;;5111400;28;20422;-70
2022/09/08 00:55:40;;;;;;;687.63;339.48;;;;;;;;;;5112246;27;20561;-70
2022/09/08 00:58:59;;;;;;;657.97;351.77;;;;;;;;;;5111442;27;20573;-70
2022/09/08 01:01:46;;;;;;;781.17;332.27;;;;;;;;;;5174052;27;20451;-71
2022/09/08 01:04:13;;;;;;;662.17;360.45;;;;;;;;;;5152535;27;20054;-71
2022/09/08 01:12:43;;;;;;;878.35;346.45;;;;;;;;;;5112103;27;20404;-71
2022/09/08 01:14:08;;;;;;;852.15;337.45;;;;;;;;;;5110795;28;20396;-71
2022/09/08 01:18:36;;;;;;;851.80;339.70;;;;;;;;;;5111646;27;20551;-71
2022/09/08 01:21:06;;;;;;;857.20;332.38;;;;;;;;;;5110994;28;20418;-70
2022/09/08 01:25:36;;;;;;;857.58;357.42;;;;;;;;;;5112173;27;20534;-71
2022/09/08 01:28:11;;;;;;;844.15;352.52;;;;;;;;;;5111064;28;20031;-71
2022/09/08 01:30:37;;;;;;;862.15;356.08;;;;;;;;;;5110076;28;20411;-71
2022/09/08 01:38:02;;;;;;;846.90;356.75;;;;;;;;;;5112210;27;20562;-71
2022/09/08 01:40:28;;;;;;;850.40;360.90;;;;;;;;;;5110970;28;20020;-71
2022/09/08 01:44:46;;;;;;;832.92;367.35;;;;;;;;;;5111966;27;20985;-70
2022/09/08 01:47:12;;;;;;;825.17;375.48;;;;;;;;;;5111909;28;20043;-70
2022/09/08 01:52:04;;;;;;;677.63;342.90;;;;;;;;;;5111527;27;20569;-70
2022/09/08 01:54:30;;;;;;;657.28;363.65;;;;;;;;;;5110938;28;20028;-70
2022/09/08 01:56:57;;;;;;;808.67;350.42;;;;;;;;;;5111740;28;20024;-71
2022/09/08 02:00:01;;;;;;;786.95;340.25;;;;;;;;;;5111923;27;20566;-71
2022/09/08 02:03:51;;;;;;;615.65;315.65;;;;;;;;;;5111550;27;20565;-71
2022/09/08 02:07:51;;;;;;;622.97;345.00;;;;;;;;;;5111802;27;20776;-71
2022/09/08 02:11:21;;;;;;;637.63;332.95;;;;;;;;;;5111862;27;20117;-71
2022/09/08 02:13:47;;;;;;;642.50;342.45;;;;;;;;;;5091015;28;20016;-71
2022/09/08 02:19:30;;;;;;;699.25;316.30;;;;;;;;;;5111431;27;20397;-71
2022/09/08 02:21:56;;;;;;;656.15;332.75;;;;;;;;;;5111348;28;20016;-70
2022/09/08 02:24:23;;;;;;;657.38;360.08;;;;;;;;;;5110998;28;20020;-70
2022/09/08 02:26:49;;;;;;;672.53;364.98;;;;;;;;;;5111263;28;20020;-70
2022/09/08 02:29:54;;;;;;;673.97;343.25;;;;;;;;;;5111561;27;20392;-71
2022/09/08 02:32:20;;;;;;;675.05;359.77;;;;;;;;;;5110044;28;20026;-71
2022/09/08 02:34:47;;;;;;;676.90;360.92;;;;;;;;;;5111241;28;20030;-71
2022/09/08 02:37:13;;;;;;;686.42;356.70;;;;;;;;;;5110974;28;20024;-71
2022/09/08 02:40:34;;;;;;;674.92;343.38;;;;;;;;;;5111316;27;20385;-71
2022/09/08 02:43:00;;;;;;;663.58;351.85;;;;;;;;;;5111395;28;20027;-71
2022/09/08 02:45:26;;;;;;;647.67;348.02;;;;;;;;;;5110887;28;20024;-70
2022/09/08 02:47:52;;;;;;;635.10;322.85;;;;;;;;;;5111274;28;20025;-71
2022/09/08 02:50:19;;;;;;;642.13;344.83;;;;;;;;;;5111200;28;20069;-70
2022/09/08 02:52:45;;;;;;;641.33;324.75;;;;;;;;;;5110744;28;20031;-70
2022/09/08 02:57:07;;;;;;;708.22;337.25;;;;;;;;;;5071093;28;20403;-70
2022/09/08 02:59:33;;;;;;;643.67;348.88;;;;;;;;;;5069188;28;20512;-70
2022/09/08 03:04:07;;;;;;;702.35;316.08;;;;;;;;;;5111568;27;20396;-70
2022/09/08 03:06:33;;;;;;;749.53;332.27;;;;;;;;;;5111056;28;20472;-71
2022/09/08 03:08:59;;;;;;;767.08;325.95;;;;;;;;;;5111268;28;20020;-70
2022/09/08 03:11:25;;;;;;;848.45;327.90;;;;;;;;;;5111361;28;20024;-70
2022/09/08 03:13:51;;;;;;;860.53;332.95;;;;;;;;;;5110830;28;20024;-70
2022/09/08 03:17:03;;;;;;;854.90;347.65;;;;;;;;;;5112224;27;20397;-70
2022/09/08 03:21:17;;;;;;;857.70;337.70;;;;;;;;;;5173770;27;20106;-70
2022/09/08 03:23:44;;;;;;;857.03;337.85;;;;;;;;;;5152520;27;20483;-71
2022/09/08 03:26:12;;;;;;;860.20;348.90;;;;;;;;;;5152162;27;20023;-71
2022/09/08 03:30:09;;;;;;;862.35;345.35;;;;;;;;;;5112026;27;21080;-71
2022/09/08 03:32:36;;;;;;;841.25;333.48;;;;;;;;;;5111895;28;20024;-71
2022/09/08 03:36:28;;;;;;;845.65;348.80;;;;;;;;;;5111818;27;20396;-71
2022/09/08 03:38:54;;;;;;;837.28;349.25;;;;;;;;;;5111620;28;20112;-70
2022/09/08 03:41:20;;;;;;;834.15;350.90;;;;;;;;;;5110982;28;20019;-71
2022/09/08 03:43:47;;;;;;;834.33;351.30;;;;;;;;;;5111259;28;20099;-71
2022/09/08 03:46:14;;;;;;;841.00;357.75;;;;;;;;;;5111392;28;20098;-71
2022/09/08 03:48:51;;;;;;;681.50;333.40;;;;;;;;;;5111149;27;20397;-71
2022/09/08 03:52:51;;;;;;;661.85;353.55;;;;;;;;;;5112231;27;20534;-71
2022/09/08 03:55:18;;;;;;;677.22;352.08;;;;;;;;;;5109706;28;20020;-71
2022/09/08 03:58:37;;;;;;;684.63;366.52;;;;;;;;;;5111472;27;20385;-71
2022/09/08 04:01:07;;;;;;;704.78;346.15;;;;;;;;;;5111157;28;20428;-71
2022/09/08 04:03:33;;;;;;;670.50;360.42;;;;;;;;;;5111649;28;20024;-71
2022/09/08 04:05:59;;;;;;;682.78;338.98;;;;;;;;;;5111246;28;20024;-71
2022/09/08 04:10:12;;;;;;;682.20;368.00;;;;;;;;;;5111593;27;20388;-70
2022/09/08 04:13:30;;;;;;;686.40;364.90;;;;;;;;;;5110253;27;20591;-70
2022/09/08 04:16:21;;;;;;;722.15;342.23;;;;;;;;;;5111210;27;20621;-71
2022/09/08 04:18:47;;;;;;;632.15;340.45;;;;;;;;;;5111682;28;20026;-70
2022/09/08 04:21:59;;;;;;;629.65;331.02;;;;;;;;;;5111590;27;20770;-70
2022/09/08 04:31:13;;;;;;;619.90;327.05;;;;;;;;;;5111017;27;20309;-71
2022/09/08 04:33:40;;;;;;;636.30;330.50;;;;;;;;;;5090996;28;20028;-71
2022/09/08 04:36:10;;;;;;;644.47;331.23;;;;;;;;;;5089215;28;20054;-72
2022/09/08 04:40:07;;;;;;;638.58;324.50;;;;;;;;;;5111589;27;21100;-71
2022/09/08 04:42:33;;;;;;;655.28;320.23;;;;;;;;;;5111527;28;20035;-71
2022/09/08 04:46:53;;;;;;;605.78;332.13;;;;;;;;;;5111398;27;20574;-71
2022/09/08 04:49:19;;;;;;;662.72;334.30;;;;;;;;;;5111450;28;20020;-71
2022/09/08 04:52:54;;;;;;;690.67;321.75;;;;;;;;;;5091025;27;20386;-71
2022/09/08 04:56:28;;;;;;;693.08;338.02;;;;;;;;;;5112096;27;20988;-71
2022/09/08 04:59:29;;;;;;;743.45;326.48;;;;;;;;;;5111451;27;20381;-72
2022/09/08 05:03:08;;;;;;;855.90;326.55;;;;;;;;;;5112132;27;20920;-72
2022/09/08 05:14:03;;;;;;;844.28;353.55;;;;;;;;;;5111658;27;20827;-71
2022/09/08 05:18:27;;;;;;;827.92;349.00;;;;;;;;;;5111623;27;20573;-71
2022/09/08 05:22:27;;;;;;;826.00;358.92;;;;;;;;;;5111629;27;20388;-71
2022/09/08 05:26:16;;;;;;;820.45;361.52;;;;;;;;;;5152580;27;20117;-71
2022/09/08 05:33:59;;;;;;;786.85;358.50;;;;;;;;;;5111217;27;20400;-73
2022/09/08 05:38:01;;;;;;;782.25;357.60;;;;;;;;;;5111426;27;20976;-71
2022/09/08 05:40:27;;;;;;;767.95;344.52;;;;;;;;;;5111174;28;20024;-72
2022/09/08 05:42:53;;;;;;;776.63;352.42;;;;;;;;;;5111399;28;20136;-72
2022/09/08 05:45:19;;;;;;;762.25;339.08;;;;;;;;;;5111278;28;20024;-72
2022/09/08 05:47:45;;;;;;;696.15;343.40;;;;;;;;;;5110875;28;20058;-72
2022/09/08 05:50:11;;;;;;;686.53;332.92;;;;;;;;;;5111157;28;20557;-71
2022/09/08 05:52:37;;;;;;;680.67;338.17;;;;;;;;;;5111102;28;20047;-71
2022/09/08 05:57:09;;;;;;;646.25;326.63;;;;;;;;;;5112072;27;20543;-71
2022/09/08 06:00:01;;;;;;;736.20;328.70;;;;;;;;;;5071761;28;20383;-71
2022/09/08 06:02:27;;;;;;;737.92;339.17;;;;;;;;;;5070501;28;20036;-71
2022/09/08 06:04:53;;;;;;;722.10;335.83;;;;;;;;;;5070823;28;20029;-71
2022/09/08 06:08:02;;;;;;;709.38;344.88;;;;;;;;;;5110942;27;20388;-72
2022/09/08 06:10:28;;;;;;;707.00;338.77;;;;;;;;;;5111533;28;20103;-72
2022/09/08 06:12:54;;;;;;;706.95;337.38;;;;;;;;;;5111361;28;20024;-72
2022/09/08 06:15:20;;;;;;;704.33;339.10;;;;;;;;;;5110992;28;20031;-72
2022/09/08 06:20:31;;;;;;;746.67;342.30;;;;;;;;;;5112140;27;20557;-71
2022/09/08 06:22:57;;;;;;;730.45;336.38;;;;;;;;;;5110924;28;20020;-72
2022/09/08 06:28:47;;;;;;;709.63;328.42;;;;;;;;;;5111121;27;20418;-71
2022/09/08 06:32:24;;;;;;;715.78;339.13;;;;;;;;;;5112115;27;20541;-73
2022/09/08 06:36:40;;;;;;;10.35;6.50;;;;;;;;;;5111500;27;20400;-71
2022/09/08 06:39:08;;;;;;;10.07;6.30;;;;;;;;;;5127271;28;20024;-72
2022/09/08 06:43:37;;;;;;;9.55;6.70;;;;;;;;;;5111278;27;20555;-71
2022/09/08 06:48:36;;;;;;;9.82;6.78;;;;;;;;;;5111576;27;20405;-71
2022/09/08 06:51:02;;;;;;;11.02;6.32;;;;;;;;;;5110970;28;20054;-71
2022/09/08 06:53:52;;;;;;;9.52;6.95;;;;;;;;;;5112281;27;20550;-73
2022/09/08 06:57:29;;;;;;;10.80;6.70;;;;;;;;;;5111575;27;20401;-71
2022/09/08 07:02:15;;;;;;;8.18;6.10;;;;;;;;;;5111482;27;20392;-71
2022/09/08 07:04:59;;;;;;;10.57;6.60;;;;;;;;;;5110921;28;20031;-71
2022/09/08 07:07:34;;;;;;;8.55;5.50;;;;;;;;;;5111442;28;20024;-71
2022/09/08 07:10:19;;;;;;;7.47;4.90;;;;;;;;;;5111355;28;20024;-73
2022/09/08 07:12:54;;;;;;;7.95;5.53;;;;;;;;;;5110835;28;20085;-70
2022/09/08 07:16:40;;;;;;;16.63;5.72;;;;;;;;;;5071035;28;20846;-71
2022/09/08 07:19:15;;;;;;;9.75;5.45;;;;;;;;;;5070642;28;20452;-71
2022/09/08 07:21:49;;;;;;;9.45;5.85;;;;;;;;;;5070783;28;20032;-71
2022/09/08 07:24:41;;;;;;;8.85;5.88;;;;;;;;;;5111780;27;20393;-71
2022/09/08 07:28:09;;;;;;;7.18;5.00;;;;;;;;;;5111815;27;21084;-71
2022/09/08 07:30:36;;;;;;;6.63;5.13;;;;;;;;;;5111628;28;20024;-71
2022/09/08 07:33:13;;;;;;;7.38;5.28;;;;;;;;;;5111346;28;20028;-71
2022/09/08 07:36:40;;;;;;;7.45;5.10;;;;;;;;;;5112036;27;20843;-71
2022/09/08 07:39:26;;;;;;;7.60;5.47;;;;;;;;;;5111493;28;20032;-71
2022/09/08 07:41:59;;;;;;;7.00;4.75;;;;;;;;;;5111218;28;20107;-73
2022/09/08 07:44:58;;;;;;;10.00;5.63;;;;;;;;;;5112164;27;20900;-71
2022/09/08 07:47:58;;;;;;;12.90;5.28;;;;;;;;;;5111194;27;20613;-72
2022/09/08 07:53:46;;;;;;;10.02;6.13;;;;;;;;;;5098636;28;20031;-72
2022/09/08 07:59:40;;;;;;;7.68;5.10;;;;;;;;;;5111466;27;20569;-71
2022/09/08 08:02:25;;;;;;;6.68;4.25;;;;;;;;;;5102972;28;20557;-72
2022/09/08 08:05:01;;;;;;;8.57;4.60;;;;;;;;;;5111330;28;20081;-72
2022/09/08 08:07:45;;;;;;;7.47;5.07;;;;;;;;;;5111347;28;20026;-71
2022/09/08 08:10:19;;;;;;;12.25;5.10;;;;;;;;;;5111290;28;20115;-71
2022/09/08 08:13:03;;;;;;;8.70;4.30;;;;;;;;;;5111414;28;20028;-71
2022/09/08 08:16:19;;;;;;;13.65;4.70;;;;;;;;;;5111026;27;20385;-72
2022/09/08 08:21:04;;;;;;;8.18;4.55;;;;;;;;;;5112215;27;20400;-71
2022/09/08 08:23:49;;;;;;;7.80;4.53;;;;;;;;;;5111394;28;20054;-73
2022/09/08 08:26:24;;;;;;;8.10;4.57;;;;;;;;;;5111249;28;20023;-73
2022/09/08 08:28:54;;;;;;;6.32;4.88;;;;;;;;;;5110754;28;20103;-71
2022/09/08 08:31:41;;;;;;;7.35;4.82;;;;;;;;;;5111119;28;20031;-72
2022/09/08 08:37:07;;;;;;;7.97;5.03;;;;;;;;;;5131572;27;20115;-73
2022/09/08 08:39:35;;;;;;;7.15;4.50;;;;;;;;;;5110031;28;20388;-72
2022/09/08 08:43:15;;;;;;;6.90;4.35;;;;;;;;;;5111413;27;20465;-71
2022/09/08 08:45:53;;;;;;;8.77;4.55;;;;;;;;;;5111570;28;20487;-73
2022/09/08 08:51:23;;;;;;;7.00;3.97;;;;;;;;;;5090717;27;20406;-72
2022/09/08 08:54:07;;;;;;;11.20;6.43;;;;;;;;;;5091247;28;20039;-72
2022/09/08 08:57:00;;;;;;;10.80;5.15;;;;;;;;;;5111539;27;21054;-71
2022/09/08 08:59:39;;;;;;;7.65;3.90;;;;;;;;;;5111397;28;20074;-71
2022/09/08 09:02:13;;;;;;;9.25;4.78;;;;;;;;;;5111288;28;20024;-74
2022/09/08 09:04:39;;;;;;;7.13;4.20;;;;;;;;;;5111038;28;20027;-74
2022/09/08 09:07:24;;;;;;;10.85;4.35;;;;;;;;;;5111189;28;20052;-72
2022/09/08 09:10:00;;;;;;;6.70;3.80;;;;;;;;;;5111132;28;20019;-73
2022/09/08 09:12:29;;;;;;;4.88;3.53;;;;;;;;;;5110737;28;20111;-74
2022/09/08 09:15:14;;;;;;;6.28;4.00;;;;;;;;;;5110974;28;20028;-72
2022/09/08 09:17:46;;;;;;;8.07;4.18;;;;;;;;;;5110529;28;20062;-73
2022/09/08 09:20:15;;;;;;;6.53;3.90;;;;;;;;;;5109655;28;20023;-73
2022/09/08 09:23:34;;;;;;;7.63;3.60;;;;;;;;;;5111668;27;20974;-71
2022/09/08 09:26:12;;;;;;;6.53;4.13;;;;;;;;;;5088566;28;20503;-73
2022/09/08 09:30:34;;;;;;;4.95;3.22;;;;;;;;;;5112100;27;20404;-71
2022/09/08 09:34:52;;;;;;;6.88;4.25;;;;;;;;;;5111768;27;20397;-73
2022/09/08 09:37:18;;;;;;;5.30;3.30;;;;;;;;;;5111499;28;20498;-72
2022/09/08 09:39:44;;;;;;;5.90;3.75;;;;;;;;;;5110867;28;20417;-72
2022/09/08 09:42:28;;;;;;;6.43;3.33;;;;;;;;;;5111202;28;20091;-73
2022/09/08 09:45:13;;;;;;;6.28;3.67;;;;;;;;;;5111538;28;20085;-72
2022/09/08 09:47:48;;;;;;;6.63;3.55;;;;;;;;;;5110709;28;20414;-72
2022/09/08 09:50:54;;;;;;;5.82;3.40;;;;;;;;;;5112193;27;20408;-73
2022/09/08 09:53:23;;;;;;;8.43;3.83;;;;;;;;;;5111294;28;20369;-72
2022/09/08 09:56:07;;;;;;;5.70;3.78;;;;;;;;;;5111248;28;20035;-72
2022/09/08 09:58:33;;;;;;;5.90;3.42;;;;;;;;;;5111149;28;20028;-73
2022/09/08 10:01:09;;;;;;;5.70;3.10;;;;;;;;;;5110836;28;20019;-72
2022/09/08 10:03:54;;;;;;;5.70;3.85;;;;;;;;;;5111115;28;20498;-72
2022/09/08 10:08:18;;;;;;;6.10;3.10;;;;;;;;;;5111120;27;20572;-72
2022/09/08 10:10:47;;;;;;;4.80;3.08;;;;;;;;;;5111482;28;20031;-72
2022/09/08 10:13:32;;;;;;;4.90;3.30;;;;;;;;;;5111341;28;20020;-71
2022/09/08 10:15:58;;;;;;;4.70;3.20;;;;;;;;;;5110901;28;20044;-72
2022/09/08 10:18:43;;;;;;;4.88;2.85;;;;;;;;;;5111217;28;20027;-71
2022/09/08 10:21:18;;;;;;;7.07;3.70;;;;;;;;;;5110772;28;20028;-71
2022/09/08 10:23:50;;;;;;;5.10;3.08;;;;;;;;;;5126677;28;20027;-73
2022/09/08 10:26:35;;;;;;;4.07;2.53;;;;;;;;;;5110917;28;20024;-72
2022/09/08 10:29:19;;;;;;;7.20;4.28;;;;;;;;;;5110739;28;20114;-72
2022/09/08 10:32:00;;;;;;;5.75;3.25;;;;;;;;;;5110935;28;20219;-72
2022/09/08 10:34:26;;;;;;;7.50;3.60;;;;;;;;;;5126734;28;20016;-75
2022/09/08 10:36:57;;;;;;;5.43;2.85;;;;;;;;;;5110410;28;20494;-72
2022/09/08 10:39:36;;;;;;;5.45;2.95;;;;;;;;;;5111091;28;20410;-72
2022/09/08 10:42:37;;;;;;;4.03;2.65;;;;;;;;;;5110434;28;20024;-72
2022/09/08 10:45:15;;;;;;;5.38;3.10;;;;;;;;;;5088225;28;20078;-72
2022/09/08 10:48:06;;;;;;;5.13;3.10;;;;;;;;;;5108170;28;20056;-72
2022/09/08 10:50:35;;;;;;;6.22;3.35;;;;;;;;;;5110419;28;20048;-72
2022/09/08 10:53:04;;;;;;;7.03;3.17;;;;;;;;;;5110501;28;20032;-72
2022/09/08 10:55:30;;;;;;;6.10;3.30;;;;;;;;;;5110460;28;20464;-71
2022/09/08 10:58:05;;;;;;;6.75;3.30;;;;;;;;;;5109908;28;20102;-73
2022/09/08 11:00:35;;;;;;;5.10;3.22;;;;;;;;;;5126175;28;20016;-71
2022/09/08 11:03:07;;;;;;;9.10;3.08;;;;;;;;;;5109914;28;20085;-71
2022/09/08 11:05:33;;;;;;;;;;;;;;;;;;5110628;28;20016;-72
2022/09/08 11:08:03;;;;;;;6.53;3.40;;;;;;;;;;5110030;28;19916;-71
2022/09/08 11:10:36;;;;;;;5.25;3.33;;;;;;;;;;5109698;28;20031;-71
2022/09/08 11:13:25;;;;;;;7.72;3.40;;;;;;;;;;5110695;28;20394;-71
2022/09/08 11:15:57;;;;;;;5.93;3.28;;;;;;;;;;5110482;28;20392;-72
2022/09/08 11:18:23;;;;;;;6.72;2.80;;;;;;;;;;5103387;28;20020;-72
2022/09/08 11:20:51;;;;;;;7.40;3.53;;;;;;;;;;5096429;28;20387;-73
2022/09/08 11:23:26;;;;;;;4.25;3.13;;;;;;;;;;5096508;28;20024;-72
2022/09/08 11:25:56;;;;;;;8.73;2.85;;;;;;;;;;5096049;28;20408;-72
2022/09/08 11:28:36;;;;;;;7.72;3.97;;;;;;;;;;5096310;28;20075;-71
2022/09/08 11:31:18;;;;;;;5.47;3.47;;;;;;;;;;5111566;28;20024;-72
2022/09/08 11:33:56;;;;;;;6.55;3.78;;;;;;;;;;5096434;28;20030;-72
2022/09/08 11:36:23;;;;;;;4.20;2.88;;;;;;;;;;5096439;28;20016;-72
2022/09/08 11:38:49;;;;;;;4.45;2.90;;;;;;;;;;5095633;28;20107;-71
2022/09/08 11:41:27;;;;;;;5.25;3.60;;;;;;;;;;5096295;28;20081;-71
2022/09/08 11:44:02;;;;;;;5.28;3.55;;;;;;;;;;5096110;28;20020;-72
2022/09/08 11:46:43;;;;;;;6.70;4.00;;;;;;;;;;5111196;28;20032;-72
2022/09/08 11:49:11;;;;;;;9.38;3.60;;;;;;;;;;5096156;28;20493;-72
2022/09/08 11:51:41;;;;;;;4.55;3.00;;;;;;;;;;5096008;28;20097;-71
2022/09/08 11:54:25;;;;;;;4.80;3.08;;;;;;;;;;5095326;28;20016;-73
2022/09/08 11:57:00;;;;;;;4.82;3.05;;;;;;;;;;5095794;28;20529;-72
2022/09/08 11:59:45;;;;;;;4.60;3.03;;;;;;;;;;5095331;28;20228;-72
2022/09/08 12:02:17;;;;;;;5.10;3.15;;;;;;;;;;5095570;28;20020;-72
2022/09/08 12:05:11;;;;;;;6.53;3.38;;;;;;;;;;5095761;28;20050;-72
2022/09/08 12:07:56;;;;;;;3.78;2.60;;;;;;;;;;5094126;28;20188;-72
2022/09/08 12:10:22;;;;;;;6.57;2.95;;;;;;;;;;5095485;28;20021;-72
2022/09/08 12:13:01;;;;;;;7.95;3.28;;;;;;;;;;5111229;28;20118;-72
2022/09/08 12:15:45;;;;;;;4.95;2.95;;;;;;;;;;5095033;28;20072;-72
2022/09/08 12:18:35;;;;;;;5.13;2.80;;;;;;;;;;5110970;28;20034;-72
2022/09/08 12:21:19;;;;;;;6.03;3.33;;;;;;;;;;5084849;28;20047;-72
2022/09/08 12:23:54;;;;;;;13.38;3.05;;;;;;;;;;5095302;28;20032;-72
2022/09/08 12:26:53;;;;;;;6.05;3.00;;;;;;;;;;5095111;28;20020;-72
2022/09/08 12:29:28;;;;;;;5.97;2.78;;;;;;;;;;5082064;28;20113;-72
2022/09/08 12:32:00;;;;;;;3.67;2.42;;;;;;;;;;5110456;28;20031;-72
2022/09/08 12:34:29;;;;;;;5.18;3.25;;;;;;;;;;5094628;28;20020;-72
2022/09/08 12:37:22;;;;;;;5.07;3.30;;;;;;;;;;5110648;28;20020;-73
2022/09/08 12:40:07;;;;;;;5.22;3.20;;;;;;;;;;5086576;28;20043;-71
2022/09/08 12:42:52;;;;;;;5.43;3.47;;;;;;;;;;5094839;28;20031;-72
2022/09/08 12:45:42;;;;;;;4.68;2.88;;;;;;;;;;5094792;28;20062;-71
2022/09/08 12:48:17;;;;;;;6.55;3.30;;;;;;;;;;5094739;28;20507;-72
2022/09/08 12:50:46;;;;;;;4.53;3.03;;;;;;;;;;5095121;28;20028;-72
2022/09/08 12:53:31;;;;;;;5.53;3.45;;;;;;;;;;5094824;28;20028;-72
2022/09/08 12:56:03;;;;;;;5.22;3.30;;;;;;;;;;5094211;28;20464;-72
2022/09/08 12:58:32;;;;;;;5.65;2.88;;;;;;;;;;5094503;28;20028;-72
2022/09/08 13:01:13;;;;;;;7.65;3.00;;;;;;;;;;5094567;28;20203;-72
2022/09/08 13:03:43;;;;;;;4.18;2.67;;;;;;;;;;5094257;28;20433;-72
2022/09/08 13:06:13;;;;;;;5.32;3.00;;;;;;;;;;5094130;28;20103;-72
2022/09/08 13:08:54;;;;;;;5.30;3.15;;;;;;;;;;5094507;28;20051;-72
2022/09/08 13:11:34;;;;;;;5.47;3.15;;;;;;;;;;5094031;28;20136;-72
2022/09/08 13:14:09;;;;;;;3.50;2.58;;;;;;;;;;5094303;28;20022;-72
2022/09/08 13:16:53;;;;;;;4.07;2.72;;;;;;;;;;5093996;28;20027;-72
2022/09/08 13:19:29;;;;;;;3.95;2.75;;;;;;;;;;5094203;28;20024;-71
2022/09/08 13:21:58;;;;;;;6.13;3.03;;;;;;;;;;5094326;28;20027;-72
2022/09/08 13:24:33;;;;;;;3.83;2.60;;;;;;;;;;5093803;28;20024;-73
2022/09/08 13:27:18;;;;;;;4.95;2.63;;;;;;;;;;5094093;28;20122;-72
2022/09/08 13:30:03;;;;;;;3.55;2.38;;;;;;;;;;5093956;28;20480;-72
2022/09/08 13:32:47;;;;;;;3.78;2.70;;;;;;;;;;5093620;28;20085;-72
2022/09/08 13:35:39;;;;;;;2.80;2.17;;;;;;;;;;5094222;28;20051;-72
2022/09/08 13:38:15;;;;;;;10.43;3.15;;;;;;;;;;5085166;28;20036;-72
2022/09/08 13:40:45;;;;;;;4.53;2.65;;;;;;;;;;5109749;28;20020;-71
2022/09/08 13:43:29;;;;;;;7.00;2.95;;;;;;;;;;5093993;28;20053;-72
2022/09/08 13:46:06;;;;;;;9.23;3.25;;;;;;;;;;5093400;28;20027;-72
2022/09/08 13:48:44;;;;;;;6.32;2.88;;;;;;;;;;5093815;28;20067;-71
2022/09/08 13:51:29;;;;;;;7.55;3.15;;;;;;;;;;5093709;28;20124;-72
2022/09/08 13:53:59;;;;;;;8.45;4.55;;;;;;;;;;5093339;28;20028;-71
2022/09/08 13:56:44;;;;;;;5.93;2.97;;;;;;;;;;5094034;28;20024;-71
2022/09/08 13:59:29;;;;;;;4.18;2.65;;;;;;;;;;5093388;28;20472;-71
2022/09/08 14:01:55;;;;;;;4.22;2.72;;;;;;;;;;5093587;28;20481;-72
2022/09/08 14:04:40;;;;;;;4.80;2.97;;;;;;;;;;5093576;28;20028;-72
2022/09/08 14:07:06;;;;;;;6.55;3.08;;;;;;;;;;5093113;28;20063;-71
2022/09/08 14:09:34;;;;;;;4.93;2.72;;;;;;;;;;5093545;28;20016;-72
2022/09/08 14:12:19;;;;;;;4.70;2.90;;;;;;;;;;5093478;28;20024;-71
2022/09/08 14:14:54;;;;;;;4.75;2.70;;;;;;;;;;5093038;28;20024;-72
2022/09/08 14:17:20;;;;;;;5.20;2.97;;;;;;;;;;5093737;28;20487;-71
2022/09/08 14:19:59;;;;;;;6.82;3.03;;;;;;;;;;5108708;28;20027;-71
2022/09/08 14:22:28;;;;;;;4.78;2.67;;;;;;;;;;5093460;28;20020;-71
2022/09/08 14:25:00;;;;;;;7.05;3.00;;;;;;;;;;5093453;28;20494;-71
2022/09/08 14:27:41;;;;;;;6.15;3.30;;;;;;;;;;5092959;28;20036;-71
2022/09/08 14:30:18;;;;;;;3.85;2.70;;;;;;;;;;5108996;28;20118;-71
2022/09/08 14:33:10;;;;;;;7.30;3.22;;;;;;;;;;5093305;28;20020;-71
2022/09/08 14:35:45;;;;;;;5.15;2.95;;;;;;;;;;5086985;28;20377;-72
2022/09/08 14:38:17;;;;;;;8.73;4.35;;;;;;;;;;5093466;28;20024;-72
2022/09/08 14:40:43;;;;;;;;;;;;;;;;;;5093913;28;20469;-73
2022/09/08 14:43:32;;;;;;;5.30;3.13;;;;;;;;;;5092896;28;20348;-72
2022/09/08 14:45:58;;;;;;;4.70;2.78;;;;;;;;;;5082887;28;20032;-73
2022/09/08 14:48:27;;;;;;;7.05;3.28;;;;;;;;;;5092771;28;20093;-70
2022/09/08 14:51:05;;;;;;;3.95;2.70;;;;;;;;;;5108759;28;20086;-73
2022/09/08 14:53:46;;;;;;;5.47;2.70;;;;;;;;;;5094621;28;20549;-73
2022/09/08 14:56:27;;;;;;;7.10;2.70;;;;;;;;;;5096602;28;20114;-71
2022/09/08 14:58:55;;;;;;;3.80;2.53;;;;;;;;;;5097176;28;20048;-72
2022/09/08 15:01:29;;;;;;;3.67;2.08;;;;;;;;;;5097142;28;20103;-72
2022/09/08 15:04:14;;;;;;;4.40;2.47;;;;;;;;;;5096600;28;20016;-72
2022/09/08 15:07:00;;;;;;;5.45;2.60;;;;;;;;;;5096723;28;20054;-72
2022/09/08 15:09:56;;;;;;;6.10;2.63;;;;;;;;;;5092164;28;20545;-72
2022/09/08 15:12:22;;;;;;;3.90;2.30;;;;;;;;;;5077079;28;20047;-72
2022/09/08 15:14:54;;;;;;;5.35;2.42;;;;;;;;;;5096642;28;20541;-72
2022/09/08 15:17:31;;;;;;;4.85;2.60;;;;;;;;;;5096191;28;20024;-72
2022/09/08 15:20:09;;;;;;;4.63;2.58;;;;;;;;;;5096815;28;20024;-71
2022/09/08 15:22:47;;;;;;;3.95;2.50;;;;;;;;;;5112257;28;20032;-72
2022/09/08 15:25:22;;;;;;;4.57;2.78;;;;;;;;;;5096053;28;20028;-72
2022/09/08 15:27:49;;;;;;;11.68;2.80;;;;;;;;;;5096914;28;20032;-72
2022/09/08 15:30:18;;;;;;;5.22;2.42;;;;;;;;;;5095971;28;20020;-71
2022/09/08 15:33:04;;;;;;;5.45;2.20;;;;;;;;;;5096385;28;20020;-72
2022/09/08 15:35:48;;;;;;;7.47;3.00;;;;;;;;;;5111627;28;20024;-72
2022/09/08 15:38:14;;;;;;;4.30;2.25;;;;;;;;;;5095721;28;20020;-71
2022/09/08 15:40:41;;;;;;;4.28;2.55;;;;;;;;;;5096070;28;20024;-72
2022/09/08 15:43:21;;;;;;;3.67;2.30;;;;;;;;;;5096110;28;20415;-71
2022/09/08 15:46:03;;;;;;;4.07;2.38;;;;;;;;;;5095649;28;20032;-72
2022/09/08 15:48:51;;;;;;;4.75;2.45;;;;;;;;;;5095980;28;20089;-71
2022/09/08 15:51:31;;;;;;;5.65;2.45;;;;;;;;;;5095820;28;20016;-73
2022/09/08 15:54:09;;;;;;;7.30;2.50;;;;;;;;;;5096083;28;20035;-70
2022/09/08 15:56:35;;;;;;;4.45;2.70;;;;;;;;;;5095754;28;20468;-71
2022/09/08 15:59:08;;;;;;;4.28;2.38;;;;;;;;;;5095511;28;20082;-72
2022/09/08 16:01:53;;;;;;;5.78;2.65;;;;;;;;;;5111508;28;20027;-73
2022/09/08 16:04:37;;;;;;;3.38;1.90;;;;;;;;;;5095787;28;20024;-71
2022/09/08 16:07:09;;;;;;;4.60;2.55;;;;;;;;;;5095164;28;20142;-71
2022/09/08 16:09:38;;;;;;;;;;;;;;;;;;5096013;28;20109;-71
2022/09/08 16:12:09;;;;;;;4.60;2.70;;;;;;;;;;5095561;28;19904;-73
2022/09/08 16:14:57;;;;;;;4.25;2.38;;;;;;;;;;5094922;28;20028;-72
2022/09/08 16:17:23;;;;;;;6.30;3.45;;;;;;;;;;5095424;28;20020;-72
2022/09/08 16:20:08;;;;;;;5.22;2.58;;;;;;;;;;5094917;28;20480;-72
2022/09/08 16:22:35;;;;;;;6.35;3.00;;;;;;;;;;5095418;28;20023;-72
2022/09/08 16:25:03;;;;;;;3.70;2.67;;;;;;;;;;5095167;28;20030;-72
2022/09/08 16:27:47;;;;;;;5.78;2.88;;;;;;;;;;5094761;28;20142;-72
2022/09/08 16:30:26;;;;;;;4.85;2.88;;;;;;;;;;5110873;28;20028;-72
2022/09/08 16:32:52;;;;;;;4.80;2.90;;;;;;;;;;5094979;28;20016;-71
2022/09/08 16:35:22;;;;;;;4.93;2.60;;;;;;;;;;5094703;28;20031;-72
2022/09/08 16:37:51;;;;;;;5.82;3.05;;;;;;;;;;5110588;28;20028;-73
2022/09/08 16:40:19;;;;;;;5.50;2.97;;;;;;;;;;5094951;28;20050;-72
2022/09/08 16:42:48;;;;;;;5.53;3.00;;;;;;;;;;5094490;28;20112;-72
2022/09/08 16:45:37;;;;;;;7.55;3.40;;;;;;;;;;5094914;28;20169;-72
2022/09/08 16:48:23;;;;;;;7.38;3.53;;;;;;;;;;5090657;28;20101;-72
2022/09/08 16:54:25;;;;;;;6.30;3.40;;;;;;;;;;5111399;27;20400;-72
2022/09/08 16:57:05;;;;;;;5.82;3.40;;;;;;;;;;5100734;28;20048;-72
2022/09/08 16:59:38;;;;;;;4.95;2.90;;;;;;;;;;5111333;28;20034;-72
2022/09/08 17:02:19;;;;;;;10.40;3.63;;;;;;;;;;5111754;28;20050;-72
2022/09/08 17:05:08;;;;;;;5.63;3.55;;;;;;;;;;5111727;28;20043;-72
2022/09/08 17:07:35;;;;;;;6.55;3.90;;;;;;;;;;5111449;28;20039;-72
2022/09/08 17:10:17;;;;;;;5.72;3.70;;;;;;;;;;5110663;28;20024;-71
2022/09/08 17:12:43;;;;;;;7.40;4.13;;;;;;;;;;5111275;28;20032;-71
2022/09/08 17:15:10;;;;;;;5.57;3.33;;;;;;;;;;5110826;28;20472;-72
2022/09/08 17:17:40;;;;;;;6.95;3.58;;;;;;;;;;5110605;28;20027;-71
2022/09/08 17:20:10;;;;;;;5.07;3.30;;;;;;;;;;5110847;28;20015;-72
2022/09/08 17:22:48;;;;;;;7.38;5.05;;;;;;;;;;5110830;28;20103;-71
2022/09/08 17:25:23;;;;;;;5.65;4.03;;;;;;;;;;5110985;28;20022;-71
2022/09/08 17:28:07;;;;;;;6.38;3.85;;;;;;;;;;5110767;28;20456;-71